Time;durP1;ratioP1;P1;durP2;ratioP2;P2;SDS_P1;SDS_P2;PMS_P1;PMS_P2;Temp;Humidity;BMP_temperature;BMP_pressure;BME280_temperature;BME280_humidity;BME280_pressure;Samples;Min_cycle;Max_cycle;Signal;HPM_P1;HPM_P2
2021/07/20 00:01:52;;;;;;;24.75;12.45;;;;;;;20.41;78.57;98838.19;5114326;28;20052;-74
2021/07/20 00:04:17;;;;;;;26.60;12.27;;;;;;;20.37;78.54;98832.41;5114809;28;20084;-74
2021/07/20 00:06:43;;;;;;;21.73;12.32;;;;;;;20.37;78.54;98829.72;5114137;28;20039;-77
2021/07/20 00:09:10;;;;;;;27.42;12.38;;;;;;;20.33;78.86;98829.28;5113910;28;20039;-76
2021/07/20 00:11:35;;;;;;;29.70;12.90;;;;;;;20.30;78.81;98834.25;5114835;28;20051;-76
2021/07/20 00:14:03;;;;;;;29.08;12.63;;;;;;;20.29;79.08;98835.28;5114341;28;20100;-73
2021/07/20 00:16:30;;;;;;;23.98;12.90;;;;;;;20.26;79.57;98843.75;5114359;28;20050;-77
2021/07/20 00:18:56;;;;;;;29.10;12.32;;;;;;;20.26;79.29;98847.28;5113874;28;20134;-76
2021/07/20 00:21:22;;;;;;;24.92;12.30;;;;;;;20.24;79.37;98845.78;5108572;28;20035;-75
2021/07/20 00:23:48;;;;;;;27.15;12.77;;;;;;;20.22;79.67;98843.31;5114642;28;20532;-78
2021/07/20 00:26:14;;;;;;;25.00;12.02;;;;;;;20.23;79.54;98849.53;5114570;28;20051;-73
2021/07/20 00:28:40;;;;;;;21.17;11.48;;;;;;;20.23;79.54;98849.53;5113964;28;20046;-77
2021/07/20 00:31:06;;;;;;;24.77;12.80;;;;;;;20.18;79.67;98853.63;5113791;28;20134;-76
2021/07/20 00:33:32;;;;;;;24.80;12.70;;;;;;;20.18;79.60;98850.94;5114281;28;20067;-75
2021/07/20 00:35:57;;;;;;;24.42;11.77;;;;;;;20.17;79.81;98857.34;5095945;28;20071;-73
2021/07/20 00:38:25;;;;;;;26.27;12.18;;;;;;;20.18;79.77;98847.44;5095886;28;20035;-75
2021/07/20 00:40:54;;;;;;;21.77;12.10;;;;;;;20.15;79.79;98848.66;5094721;28;20566;-76
2021/07/20 00:43:20;;;;;;;23.50;12.32;;;;;;;20.13;79.94;98848.03;5114178;28;20110;-76
2021/07/20 00:45:46;;;;;;;25.30;11.95;;;;;;;20.12;79.83;98848.25;5114124;28;20054;-73
2021/07/20 00:48:13;;;;;;;30.23;13.27;;;;;;;20.08;79.68;98837.06;5113325;28;20109;-75
2021/07/20 00:50:44;;;;;;;25.73;12.23;;;;;;;20.09;79.84;98848.63;5113986;28;20061;-73
2021/07/20 00:53:13;;;;;;;32.45;13.68;;;;;;;20.11;79.82;98844.75;5078612;28;20044;-74
2021/07/20 00:55:43;;;;;;;30.08;13.40;;;;;;;20.09;79.76;98838.72;5095974;28;20052;-79
2021/07/20 00:58:11;;;;;;;27.77;12.20;;;;;;;20.07;79.64;98838.09;5078628;28;20051;-74
2021/07/20 01:00:37;;;;;;;25.42;11.48;;;;;;;20.08;79.56;98842.44;5114418;28;20057;-75
2021/07/20 01:03:05;;;;;;;22.48;12.57;;;;;;;20.04;79.68;98836.66;5113727;28;20134;-73
2021/07/20 01:05:32;;;;;;;27.23;12.55;;;;;;;19.96;80.09;98838.69;5095475;28;20715;-75
2021/07/20 01:08:03;;;;;;;23.13;12.00;;;;;;;19.87;80.60;98828.09;5095377;28;20035;-75
2021/07/20 01:10:29;;;;;;;23.13;12.05;;;;;;;19.80;80.87;98835.28;5112986;28;20052;-73
2021/07/20 01:12:57;;;;;;;22.73;12.13;;;;;;;19.77;81.05;98822.25;5094908;28;20044;-76
2021/07/20 01:15:24;;;;;;;25.60;12.13;;;;;;;19.73;80.89;98834.41;5113568;28;20074;-73
2021/07/20 01:17:54;;;;;;;21.17;11.95;;;;;;;19.70;81.01;98826.75;5112910;28;20580;-74
2021/07/20 01:20:23;;;;;;;23.95;12.73;;;;;;;19.67;81.14;98824.47;5113867;28;20138;-76
2021/07/20 01:23:06;;;;;;;25.50;12.20;;;;;;;19.67;81.13;98824.47;5113438;28;20047;-76
2021/07/20 01:25:37;;;;;;;22.75;12.15;;;;;;;19.61;81.19;98823.41;5093344;28;20039;-74
2021/07/20 01:28:07;;;;;;;26.23;12.10;;;;;;;19.60;81.14;98815.56;5093567;28;20043;-73
2021/07/20 01:30:36;;;;;;;24.23;12.07;;;;;;;19.59;81.12;98811.22;5112822;28;20134;-74
2021/07/20 01:33:03;;;;;;;25.25;12.15;;;;;;;19.61;80.94;98815.34;5112848;28;20043;-76
2021/07/20 01:35:30;;;;;;;20.80;11.50;;;;;;;19.62;80.87;98810.84;5094287;28;20040;-73
2021/07/20 01:37:59;;;;;;;27.52;13.40;;;;;;;19.62;80.64;98816.19;5091570;28;20097;-74
2021/07/20 01:40:26;;;;;;;22.30;12.00;;;;;;;19.64;80.50;98819.50;5093705;28;20070;-73
2021/07/20 01:42:53;;;;;;;24.27;11.80;;;;;;;19.66;80.48;98812.91;5094713;28;20048;-75
2021/07/20 01:45:20;;;;;;;25.65;11.82;;;;;;;19.62;80.05;98811.66;5077442;28;20044;-76
2021/07/20 01:47:50;;;;;;;23.55;11.77;;;;;;;19.60;79.98;98823.59;5094425;28;20104;-75
2021/07/20 01:50:18;;;;;;;28.58;11.95;;;;;;;19.56;79.97;98818.66;5077316;28;20044;-74
2021/07/20 01:52:46;;;;;;;23.15;11.48;;;;;;;19.55;79.88;98822.34;5077097;28;20044;-74
2021/07/20 01:55:13;;;;;;;;;;;;;;;19.54;79.92;98822.56;5112252;28;20131;-73
2021/07/20 01:57:41;;;;;;;25.20;11.43;;;;;;;19.53;79.46;98819.03;5091620;28;19927;-76
2021/07/20 02:00:33;;;;;;;21.08;11.68;;;;;;;19.53;79.35;98821.72;5029086;28;20128;-74
2021/07/20 02:03:22;;;;;;;28.85;12.13;;;;;;;19.55;79.27;98824.19;5012830;28;20478;-73
2021/07/20 02:09:22;;;;;;;24.83;11.70;;;;;;;19.55;78.96;98821.50;5013550;28;20045;-76
2021/07/20 02:11:49;;;;;;;27.38;11.77;;;;;;;19.53;78.82;98827.09;5012804;28;20049;-75
2021/07/20 02:14:46;;;;;;;25.17;11.30;;;;;;;19.53;78.81;98824.41;4986727;28;20484;-73
2021/07/20 02:17:28;;;;;;;25.38;11.82;;;;;;;19.56;78.83;98823.19;4978233;28;20046;-73
2021/07/20 02:19:59;;;;;;;26.45;11.65;;;;;;;19.60;78.58;98818.25;4973910;28;20059;-77
2021/07/20 02:22:48;;;;;;;23.33;11.95;;;;;;;19.61;78.20;98819.91;4972892;28;20050;-75
2021/07/20 02:25:14;;;;;;;;;;;;;;;19.66;77.89;98826.31;4966903;28;20061;-75
2021/07/20 02:27:40;;;;;;;26.88;13.95;;;;;;;19.74;77.58;98828.03;4970910;28;19926;-75
2021/07/20 02:30:16;;;;;;;29.00;11.02;;;;;;;19.77;77.24;98830.31;4954422;28;20137;-73
2021/07/20 02:32:44;;;;;;;23.42;11.43;;;;;;;19.82;76.94;98827.84;4979822;28;20054;-73
2021/07/20 02:35:21;;;;;;;25.95;11.50;;;;;;;19.91;76.64;98828.53;4972652;28;20061;-74
2021/07/20 02:37:52;;;;;;;20.08;10.75;;;;;;;19.99;75.84;98828.38;4986780;28;20101;-72
2021/07/20 02:40:22;;;;;;;23.17;10.75;;;;;;;20.07;75.02;98827.34;5010477;28;20046;-75
2021/07/20 02:42:54;;;;;;;26.48;11.75;;;;;;;20.15;74.68;98832.56;5012401;28;20048;-74
2021/07/20 02:45:20;;;;;;;20.88;10.45;;;;;;;20.25;73.83;98836.72;5000348;28;20137;-77
2021/07/20 02:47:49;;;;;;;21.13;10.10;;;;;;;20.32;73.74;98827.63;4992812;28;20095;-75
2021/07/20 02:50:21;;;;;;;22.02;10.32;;;;;;;20.40;72.71;98834.69;5023855;28;20059;-76
2021/07/20 02:52:52;;;;;;;20.52;11.13;;;;;;;20.49;72.30;98827.28;5093171;28;20051;-74
2021/07/20 02:55:26;;;;;;;22.90;10.35;;;;;;;20.57;71.44;98831.63;5093356;28;20078;-76
2021/07/20 02:57:52;;;;;;;23.00;10.90;;;;;;;20.64;70.76;98819.84;5093755;28;20522;-76
2021/07/20 03:00:18;;;;;;;21.42;11.55;;;;;;;20.72;70.78;98818.84;5059098;28;20040;-75
2021/07/20 03:02:53;;;;;;;25.80;10.35;;;;;;;20.79;70.24;98826.94;5060890;28;20130;-75
2021/07/20 03:05:20;;;;;;;23.83;11.05;;;;;;;20.85;69.56;98821.53;5076615;28;20514;-77
2021/07/20 03:07:52;;;;;;;23.70;10.48;;;;;;;20.94;69.48;98834.78;5094314;28;20047;-75
2021/07/20 03:10:21;;;;;;;24.17;11.05;;;;;;;21.01;69.07;98824.88;5080263;28;20082;-75
2021/07/20 03:12:48;;;;;;;24.77;10.80;;;;;;;21.08;69.13;98825.66;5097289;28;20048;-73
2021/07/20 03:15:15;;;;;;;22.42;10.57;;;;;;;21.13;68.90;98833.97;5080638;28;20039;-74
2021/07/20 03:17:51;;;;;;;19.80;10.43;;;;;;;21.24;68.69;98831.69;5077431;28;20079;-74
2021/07/20 03:20:18;;;;;;;22.92;10.93;;;;;;;21.28;68.22;98825.69;5080005;28;20048;-76
2021/07/20 03:22:44;;;;;;;20.75;10.32;;;;;;;21.36;67.98;98826.47;5097733;28;20047;-76
2021/07/20 03:25:15;;;;;;;19.63;10.25;;;;;;;21.40;67.54;98828.53;5096665;28;20067;-74
2021/07/20 03:27:43;;;;;;;22.98;10.80;;;;;;;21.47;67.06;98828.50;5080346;28;20522;-77
2021/07/20 03:30:12;;;;;;;24.77;10.82;;;;;;;21.50;67.12;98828.09;5096486;28;20050;-74
2021/07/20 03:32:44;;;;;;;21.13;10.50;;;;;;;21.59;66.91;98824.16;5097423;28;20412;-74
2021/07/20 03:35:14;;;;;;;26.05;11.57;;;;;;;21.62;66.02;98825.59;5096422;28;20043;-76
2021/07/20 03:37:43;;;;;;;24.75;10.32;;;;;;;21.74;66.05;98832.00;5096903;28;20040;-72
2021/07/20 03:40:11;;;;;;;19.70;10.30;;;;;;;21.84;65.75;98831.53;5068343;28;20131;-73
2021/07/20 03:42:38;;;;;;;20.95;10.15;;;;;;;21.92;65.50;98841.25;5080436;28;20527;-74
2021/07/20 03:45:05;;;;;;;;;;;;;;;22.00;64.96;98834.81;5096394;28;20052;-74
2021/07/20 03:47:31;;;;;;;21.02;10.52;;;;;;;22.12;64.93;98839.31;5114913;28;19963;-73
2021/07/20 03:49:58;;;;;;;22.52;10.57;;;;;;;22.22;63.70;98843.38;5079808;28;20054;-72
2021/07/20 03:52:28;;;;;;;19.02;10.10;;;;;;;22.36;63.60;98842.28;5096422;28;20047;-73
2021/07/20 03:54:55;;;;;;;25.15;11.02;;;;;;;22.44;63.84;98844.78;5096342;28;20055;-72
2021/07/20 03:57:23;;;;;;;21.90;10.88;;;;;;;22.50;63.76;98850.34;5113900;28;20096;-74
2021/07/20 03:59:52;;;;;;;21.58;10.73;;;;;;;22.55;63.48;98850.50;5096071;28;20464;-75
2021/07/20 04:02:36;;;;;;;24.08;10.52;;;;;;;22.66;63.04;98852.50;5096126;28;20052;-76
2021/07/20 04:05:12;;;;;;;20.77;11.05;;;;;;;22.77;62.65;98853.69;5096174;28;20102;-74
2021/07/20 04:07:39;;;;;;;29.70;14.43;;;;;;;22.82;62.51;98855.69;5078619;28;20121;-75
2021/07/20 04:10:14;;;;;;;18.40;9.98;;;;;;;23.03;61.92;98858.03;5112135;28;20062;-75
2021/07/20 04:12:44;;;;;;;49.42;22.58;;;;;;;24.06;59.29;98858.50;5114393;28;20036;-76
2021/07/20 04:15:19;;;;;;;22.80;10.57;;;;;;;25.71;54.78;98858.28;5095807;28;20423;-74
2021/07/20 04:17:58;;;;;;;21.40;10.20;;;;;;;26.86;51.65;98854.84;5077113;28;20051;-72
2021/07/20 04:20:25;;;;;;;20.50;10.75;;;;;;;27.68;48.55;98858.81;5083542;28;20051;-77
2021/07/20 04:22:51;;;;;;;;;;;;;;;28.06;46.42;98856.31;5080355;28;20047;-73
2021/07/20 04:25:19;;;;;;;19.08;10.43;;;;;;;29.03;44.70;98863.84;5113762;28;20476;-76
2021/07/20 04:27:51;;;;;;;18.45;10.18;;;;;;;29.79;42.21;98865.44;5096597;28;20047;-73
2021/07/20 04:30:17;;;;;;;19.27;10.75;;;;;;;30.63;40.16;98867.38;5081970;28;20119;-77
2021/07/20 04:32:47;;;;;;;19.88;10.18;;;;;;;30.78;38.84;98864.69;5095773;28;20139;-76
2021/07/20 04:35:16;;;;;;;21.02;10.40;;;;;;;31.24;37.70;98868.53;5114246;28;20079;-74
2021/07/20 04:37:53;;;;;;;20.55;10.55;;;;;;;31.74;36.88;98871.44;5097589;28;20035;-75
2021/07/20 04:40:19;;;;;;;22.60;10.35;;;;;;;32.59;35.34;98869.72;5078338;28;20047;-76
2021/07/20 04:42:46;;;;;;;18.87;9.97;;;;;;;33.06;34.10;98868.28;5095784;28;20051;-76
2021/07/20 04:45:13;;;;;;;24.50;10.20;;;;;;;33.51;33.32;98873.63;5079370;28;20140;-75
2021/07/20 04:47:43;;;;;;;18.50;10.60;;;;;;;33.95;32.28;98871.78;5114515;28;20043;-77
2021/07/20 04:50:33;;;;;;;19.90;10.15;;;;;;;34.17;31.69;98875.88;5105089;28;20600;-76
2021/07/20 04:53:03;;;;;;;17.38;9.55;;;;;;;34.53;31.07;98878.16;5078827;28;20039;-76
2021/07/20 04:55:31;;;;;;;17.63;9.95;;;;;;;34.81;30.33;98867.31;5094551;28;20050;-79
2021/07/20 04:58:03;;;;;;;18.23;9.63;;;;;;;35.13;29.48;98876.69;5113630;28;20080;-77
2021/07/20 05:00:29;;;;;;;17.40;9.85;;;;;;;33.59;31.79;98879.59;5092247;28;20515;-76
2021/07/20 05:02:57;;;;;;;22.38;10.90;;;;;;;32.98;32.85;98879.84;5095638;28;20062;-77
2021/07/20 05:05:24;;;;;;;19.77;10.23;;;;;;;32.81;33.17;98873.97;5091474;28;20127;-77
2021/07/20 05:07:55;;;;;;;16.55;9.73;;;;;;;32.42;33.79;98884.56;5091294;28;20044;-74
2021/07/20 05:10:23;;;;;;;18.88;10.70;;;;;;;32.25;33.49;98881.38;5075258;28;20334;-76
2021/07/20 05:13:14;;;;;;;25.27;16.98;;;;;;;32.39;33.75;98881.63;5078347;28;20402;-77
2021/07/20 05:15:41;;;;;;;17.70;10.73;;;;;;;33.13;32.37;98889.06;5087179;28;20123;-80
2021/07/20 05:18:11;;;;;;;22.45;12.75;;;;;;;33.28;32.20;98888.91;5078106;28;20035;-74
2021/07/20 05:20:40;;;;;;;19.48;10.45;;;;;;;33.59;32.15;98890.56;5079285;28;20126;-76
2021/07/20 05:23:07;;;;;;;17.20;10.55;;;;;;;34.41;30.72;98900.59;5113288;28;20051;-75
2021/07/20 05:25:34;;;;;;;17.88;10.13;;;;;;;34.50;29.85;98887.00;5094772;28;20071;-77
2021/07/20 05:28:00;;;;;;;20.92;10.40;;;;;;;34.21;30.49;98901.66;5078147;28;20043;-78
2021/07/20 05:30:30;;;;;;;21.77;9.75;;;;;;;34.45;30.65;98898.06;5077359;28;20131;-78
2021/07/20 05:32:58;;;;;;;20.23;10.40;;;;;;;34.69;30.18;98897.97;5079073;28;20050;-77
2021/07/20 05:35:55;;;;;;;19.60;10.17;;;;;;;36.31;28.47;98900.34;5049352;28;20123;-74
2021/07/20 05:38:22;;;;;;;22.30;10.30;;;;;;;36.91;27.79;98891.84;5013581;28;20311;-74
2021/07/20 05:41:17;;;;;;;20.38;9.95;;;;;;;37.71;26.69;98893.09;5030094;28;20099;-76
2021/07/20 05:43:45;;;;;;;22.33;10.85;;;;;;;37.12;26.61;98894.06;5013478;28;20124;-77
2021/07/20 05:46:11;;;;;;;21.20;11.15;;;;;;;37.81;25.81;98892.84;5008715;28;20053;-77
2021/07/20 05:48:41;;;;;;;19.42;11.35;;;;;;;38.39;25.24;98895.59;5016797;28;20045;-78
2021/07/20 05:51:10;;;;;;;20.88;10.73;;;;;;;39.31;24.02;98891.81;5033284;28;20155;-81
2021/07/20 05:53:52;;;;;;;24.23;11.05;;;;;;;40.37;22.37;98888.56;5018863;28;20571;-78
2021/07/20 05:56:37;;;;;;;20.02;10.95;;;;;;;40.68;21.63;98895.69;5035376;28;20037;-74
2021/07/20 05:59:23;;;;;;;17.98;10.82;;;;;;;40.80;21.14;98886.59;5024294;28;20045;-76
2021/07/20 06:01:51;;;;;;;26.88;11.98;;;;;;;40.99;21.33;98889.69;5031080;28;20451;-76
2021/07/20 06:04:18;;;;;;;28.25;12.60;;;;;;;41.80;21.06;98888.44;4996221;28;20077;-78
2021/07/20 06:06:50;;;;;;;20.83;11.52;;;;;;;42.67;19.40;98886.34;5018692;28;20128;-77
2021/07/20 06:09:19;;;;;;;26.38;11.23;;;;;;;43.27;19.01;98896.75;5000278;28;20083;-76
2021/07/20 06:11:46;;;;;;;27.38;16.70;;;;;;;43.79;18.19;98892.94;5066550;28;20091;-76
2021/07/20 06:14:12;;;;;;;21.98;12.35;;;;;;;43.00;18.31;98888.88;5111900;28;20044;-78
2021/07/20 06:16:39;;;;;;;;;;;;;;;42.81;18.42;98894.34;5094201;28;20092;-76
2021/07/20 06:19:05;;;;;;;26.92;12.52;;;;;;;42.66;18.14;98899.44;5094480;28;20038;-77
2021/07/20 06:21:33;;;;;;;;;;;;;;;42.06;19.73;98896.47;5089916;28;20685;-80
2021/07/20 06:24:01;;;;;;;20.65;11.65;;;;;;;42.46;18.73;98900.44;5090027;28;20018;-83
2021/07/20 06:26:28;;;;;;;22.70;11.52;;;;;;;42.18;18.60;98907.53;5077790;28;20527;-78
2021/07/20 06:28:56;;;;;;;25.42;12.70;;;;;;;40.90;19.60;98908.34;5094269;28;20050;-79
2021/07/20 06:31:22;;;;;;;21.48;12.05;;;;;;;41.26;19.27;98904.09;5093782;28;20043;-73
2021/07/20 06:33:49;;;;;;;20.98;10.93;;;;;;;42.00;17.74;98901.44;5094226;28;20512;-78
2021/07/20 06:36:16;;;;;;;23.58;12.35;;;;;;;40.99;18.27;98900.81;5112282;28;20460;-80
2021/07/20 06:38:43;;;;;;;19.95;11.50;;;;;;;40.67;18.55;98905.94;5107259;28;20047;-75
2021/07/20 06:41:09;;;;;;;20.85;11.35;;;;;;;40.42;18.55;98902.22;5109698;28;20415;-79
2021/07/20 06:43:37;;;;;;;21.50;10.57;;;;;;;40.71;18.39;98895.00;5076136;28;20503;-77
2021/07/20 06:46:03;;;;;;;21.42;10.65;;;;;;;42.34;16.83;98896.53;5094125;28;20122;-82
2021/07/20 06:48:29;;;;;;;17.33;11.40;;;;;;;42.83;16.51;98894.78;5060516;28;20680;-79
2021/07/20 06:50:55;;;;;;;21.88;11.40;;;;;;;43.17;15.97;98903.69;5094157;28;20050;-79
2021/07/20 06:53:22;;;;;;;18.10;10.23;;;;;;;43.87;15.34;98896.69;5077230;28;20043;-76
2021/07/20 06:55:52;;;;;;;17.02;10.18;;;;;;;44.24;14.60;98901.94;5112523;28;20085;-76
2021/07/20 06:58:20;;;;;;;16.33;10.35;;;;;;;44.96;14.12;98894.28;5078269;28;20051;-78
2021/07/20 07:00:52;;;;;;;16.00;10.10;;;;;;;44.66;14.10;98892.06;5112844;28;20531;-79
2021/07/20 07:03:22;;;;;;;19.20;10.32;;;;;;;44.49;14.37;98898.91;5112082;28;20039;-80
2021/07/20 07:05:48;;;;;;;17.27;10.27;;;;;;;44.59;13.94;98892.75;5112139;28;20048;-78
2021/07/20 07:08:15;;;;;;;16.05;10.15;;;;;;;44.96;13.76;98896.28;5111990;28;20066;-78
2021/07/20 07:10:40;;;;;;;22.58;13.38;;;;;;;44.21;14.30;98891.50;5090561;28;20060;-78
2021/07/20 07:13:08;;;;;;;17.95;11.20;;;;;;;43.95;14.34;98887.34;5091891;28;20044;-79
2021/07/20 07:15:36;;;;;;;19.52;12.32;;;;;;;44.37;14.09;98891.50;5090273;28;20431;-76
2021/07/20 07:18:02;;;;;;;15.60;9.50;;;;;;;44.56;13.72;98890.69;5090681;28;20480;-79
2021/07/20 07:20:28;;;;;;;16.85;8.60;;;;;;;45.38;13.10;98884.28;5090836;28;20047;-81
2021/07/20 07:22:54;;;;;;;14.77;8.73;;;;;;;44.17;13.24;98887.84;5073533;28;20048;-83
2021/07/20 07:25:22;;;;;;;14.52;8.48;;;;;;;44.13;13.54;98886.97;5091958;28;20500;-81
2021/07/20 07:27:49;;;;;;;17.52;9.48;;;;;;;44.69;13.34;98893.31;5090630;28;20089;-80
2021/07/20 07:30:16;;;;;;;17.48;8.93;;;;;;;45.25;13.22;98894.03;5090644;28;20072;-76
2021/07/20 07:32:42;;;;;;;14.48;7.93;;;;;;;45.87;11.82;98896.66;5091526;28;20075;-76
2021/07/20 07:35:09;;;;;;;16.20;9.13;;;;;;;45.98;12.10;98891.25;5094515;28;20477;-79
2021/07/20 07:37:35;;;;;;;16.75;7.82;;;;;;;44.51;11.81;98892.97;5095040;28;20051;-82
2021/07/20 07:40:04;;;;;;;15.02;7.40;;;;;;;43.56;12.78;98898.34;5090928;28;20116;-76
2021/07/20 07:42:30;;;;;;;13.93;7.82;;;;;;;43.47;12.67;98890.13;5091452;28;20047;-75
2021/07/20 07:44:57;;;;;;;12.68;8.20;;;;;;;43.68;12.70;98885.47;5091950;28;20067;-76
2021/07/20 07:47:24;;;;;;;17.15;8.57;;;;;;;44.57;12.13;98883.94;5090625;28;20075;-86
2021/07/20 07:49:50;;;;;;;13.18;7.95;;;;;;;44.95;11.63;98891.84;5091689;28;20074;-80
2021/07/20 07:52:16;;;;;;;17.50;7.95;;;;;;;43.21;12.51;98887.88;5090639;28;20404;-78
2021/07/20 07:54:44;;;;;;;11.07;6.65;;;;;;;41.55;13.45;98889.25;5093775;28;20047;-79
2021/07/20 07:57:16;;;;;;;11.25;7.07;;;;;;;42.03;13.19;98892.38;5095552;28;20147;-76
2021/07/20 07:59:43;;;;;;;13.95;7.45;;;;;;;42.48;13.66;98890.56;5095270;28;20058;-78
2021/07/20 08:02:11;;;;;;;12.73;7.38;;;;;;;43.59;12.21;98906.00;5094222;28;20523;-77
2021/07/20 08:04:39;;;;;;;16.13;7.13;;;;;;;44.24;11.88;98896.38;5093755;28;20036;-77
2021/07/20 08:07:05;;;;;;;14.10;7.43;;;;;;;44.35;11.92;98891.03;5094230;28;20143;-78
2021/07/20 08:09:31;;;;;;;14.45;7.35;;;;;;;44.58;11.60;98893.91;5092917;28;20130;-77
2021/07/20 08:11:59;;;;;;;10.25;6.30;;;;;;;44.14;11.37;98898.91;5088032;28;20058;-76
2021/07/20 08:14:27;;;;;;;14.32;6.30;;;;;;;43.53;11.70;98904.63;5074797;28;20098;-77
2021/07/20 08:16:57;;;;;;;10.80;6.55;;;;;;;43.13;11.68;98906.38;5080003;28;20036;-79
2021/07/20 08:19:26;;;;;;;16.17;7.38;;;;;;;41.87;13.64;98899.81;5093525;28;20035;-80
2021/07/20 08:21:58;;;;;;;24.58;9.50;;;;;;;42.43;12.94;98890.84;5094438;28;20154;-81
2021/07/20 08:24:25;;;;;;;12.85;6.78;;;;;;;42.14;13.17;98898.28;5095650;28;20036;-76
2021/07/20 08:27:04;;;;;;;10.55;6.45;;;;;;;43.17;12.09;98894.50;5077223;28;20143;-77
2021/07/20 08:29:36;;;;;;;9.48;6.25;;;;;;;42.51;12.52;98903.78;5094573;28;20554;-81
2021/07/20 08:32:14;;;;;;;15.18;5.88;;;;;;;42.53;12.11;98885.94;5076800;28;20046;-78
2021/07/20 08:34:49;;;;;;;13.32;5.63;;;;;;;42.68;11.95;98888.78;5093326;28;20487;-76
2021/07/20 08:37:16;;;;;;;10.95;5.32;;;;;;;41.71;12.37;98883.84;5093455;28;20048;-76
2021/07/20 08:39:43;;;;;;;10.00;5.68;;;;;;;40.77;13.30;98881.75;5094448;28;20127;-77
2021/07/20 08:42:29;;;;;;;11.45;5.95;;;;;;;40.42;13.84;98888.34;5093529;28;20135;-77
2021/07/20 08:45:20;;;;;;;13.48;6.20;;;;;;;39.93;14.53;98888.81;5087558;28;20547;-79
2021/07/20 08:48:15;;;;;;;15.10;10.23;;;;;;;40.10;14.46;98885.97;5094828;28;20044;-77
2021/07/20 08:50:57;;;;;;;14.32;9.52;;;;;;;40.02;14.74;98886.81;5095047;28;20047;-75
2021/07/20 08:53:51;;;;;;;24.05;11.77;;;;;;;41.27;13.67;98888.28;5082232;28;20036;-78
2021/07/20 08:56:20;;;;;;;12.30;6.07;;;;;;;41.57;13.12;98888.91;5074171;28;20048;-78
2021/07/20 08:58:51;;;;;;;12.52;6.45;;;;;;;41.50;13.22;98892.25;5080144;28;20052;-79
2021/07/20 09:01:27;;;;;;;10.27;6.22;;;;;;;42.44;12.22;98889.69;5072411;28;20063;-77
2021/07/20 09:04:00;;;;;;;17.98;6.90;;;;;;;43.06;12.00;98896.97;5088362;28;20044;-79
2021/07/20 09:06:28;;;;;;;17.30;7.63;;;;;;;43.24;11.76;98897.50;5071677;28;20118;-76
2021/07/20 09:08:57;;;;;;;12.75;7.22;;;;;;;43.21;11.57;98909.31;5085659;28;20400;-78
2021/07/20 09:11:45;;;;;;;11.98;7.20;;;;;;;42.68;12.15;98905.47;5107052;28;20055;-77
2021/07/20 09:14:11;;;;;;;12.25;6.38;;;;;;;42.73;11.51;98906.41;5096354;28;20043;-80
2021/07/20 09:16:43;;;;;;;13.57;6.60;;;;;;;42.46;11.52;98898.47;5114510;28;20043;-78
2021/07/20 09:19:30;;;;;;;11.25;5.97;;;;;;;41.95;12.43;98901.69;5096995;28;20488;-77
2021/07/20 09:22:00;;;;;;;14.95;6.60;;;;;;;42.19;11.93;98905.59;5096871;28;20185;-79
2021/07/20 09:24:30;;;;;;;9.75;6.88;;;;;;;42.14;12.53;98897.50;5096635;28;20043;-76
2021/07/20 09:27:03;;;;;;;13.73;8.65;;;;;;;41.66;13.22;98895.19;5096263;28;20115;-81
2021/07/20 09:29:30;;;;;;;11.32;7.03;;;;;;;42.16;12.70;98892.38;5114612;28;20051;-74
2021/07/20 09:32:02;;;;;;;15.52;7.57;;;;;;;42.70;12.11;98887.63;5113552;28;20052;-80
2021/07/20 09:34:37;;;;;;;10.32;6.40;;;;;;;41.87;12.88;98888.69;5113570;28;20048;-78
2021/07/20 09:37:06;;;;;;;16.98;7.55;;;;;;;42.14;12.64;98898.28;5114034;28;20502;-79
2021/07/20 09:39:56;;;;;;;14.32;7.55;;;;;;;42.37;13.20;98897.00;5095927;28;20063;-80
2021/07/20 09:42:53;;;;;;;19.67;8.30;;;;;;;41.51;13.85;98893.06;5113578;28;20054;-78
2021/07/20 09:45:21;;;;;;;23.38;11.05;;;;;;;41.94;13.47;98888.94;5113767;28;20569;-79
2021/07/20 09:47:53;;;;;;;16.90;8.32;;;;;;;41.43;13.76;98889.25;5112888;28;20408;-78
2021/07/20 09:50:20;;;;;;;17.67;8.10;;;;;;;41.98;13.68;98889.84;5113882;28;20411;-77
2021/07/20 09:53:01;;;;;;;10.80;6.25;;;;;;;42.45;13.14;98884.94;5113597;28;20043;-76
2021/07/20 09:55:54;;;;;;;15.48;6.38;;;;;;;42.18;13.23;98890.84;5114002;28;20052;-76
2021/07/20 09:58:36;;;;;;;10.27;6.65;;;;;;;41.04;13.53;98886.72;5062361;28;20599;-78
2021/07/20 10:01:24;;;;;;;13.60;7.05;;;;;;;40.74;14.46;98880.47;5095929;28;20093;-78
2021/07/20 10:03:59;;;;;;;15.63;6.28;;;;;;;40.25;14.65;98880.97;5095429;28;20043;-79
2021/07/20 10:06:47;;;;;;;14.50;6.25;;;;;;;40.31;15.09;98882.41;5095741;28;20515;-79
2021/07/20 10:09:17;;;;;;;14.23;6.90;;;;;;;39.29;15.88;98879.44;5113001;28;20047;-77
2021/07/20 10:12:04;;;;;;;11.93;6.53;;;;;;;39.39;15.94;98887.38;5112656;28;20047;-76
2021/07/20 10:14:53;;;;;;;14.07;5.97;;;;;;;40.22;15.14;98882.47;5094522;28;20191;-75
2021/07/20 10:17:31;;;;;;;12.00;6.18;;;;;;;39.28;15.71;98875.06;5094552;28;20549;-76
2021/07/20 10:20:04;;;;;;;19.00;6.75;;;;;;;38.51;17.12;98881.13;5095274;28;20039;-75
2021/07/20 10:22:48;;;;;;;11.45;6.00;;;;;;;38.17;17.13;98888.22;5094670;28;20039;-77
2021/07/20 10:25:37;;;;;;;16.77;6.97;;;;;;;38.58;17.12;98888.94;5112675;28;20139;-76
2021/07/20 10:28:10;;;;;;;11.63;6.10;;;;;;;39.13;16.49;98882.72;5112754;28;20051;-75
2021/07/20 10:30:39;;;;;;;13.98;6.00;;;;;;;39.44;16.47;98876.16;5094753;28;20043;-79
2021/07/20 10:33:17;;;;;;;23.48;12.60;;;;;;;39.51;15.94;98883.13;5113138;28;20084;-75
2021/07/20 10:36:00;;;;;;;18.05;8.25;;;;;;;38.46;16.41;98879.34;5095202;28;20074;-74
2021/07/20 10:38:42;;;;;;;12.38;6.45;;;;;;;37.58;16.73;98886.56;5094589;28;20039;-81
2021/07/20 10:41:16;;;;;;;11.82;5.70;;;;;;;37.32;16.74;98875.38;5094619;28;20411;-76
2021/07/20 10:43:47;;;;;;;10.45;5.57;;;;;;;36.83;17.42;98887.03;5112361;28;20066;-78
2021/07/20 10:46:14;;;;;;;11.52;5.60;;;;;;;36.51;17.35;98877.84;5112563;28;20139;-78
2021/07/20 10:48:45;;;;;;;12.13;5.65;;;;;;;36.57;17.67;98873.06;5094457;28;20122;-80
2021/07/20 10:51:24;;;;;;;9.82;5.35;;;;;;;36.50;17.55;98868.00;5094742;28;20044;-76
2021/07/20 10:54:06;;;;;;;8.07;5.00;;;;;;;36.19;17.74;98867.81;5122155;28;20055;-75
2021/07/20 10:56:41;;;;;;;10.55;5.53;;;;;;;35.68;18.32;98873.25;5083086;28;20043;-78
2021/07/20 10:59:24;;;;;;;8.25;4.95;;;;;;;35.89;18.53;98875.59;5095187;28;20044;-78
2021/07/20 11:02:27;;;;;;;9.02;4.72;;;;;;;35.54;18.53;98870.50;5078461;28;20043;-80
2021/07/20 11:04:58;;;;;;;9.02;4.90;;;;;;;35.25;18.89;98868.78;5112621;28;20139;-76
2021/07/20 11:07:37;;;;;;;12.95;6.15;;;;;;;34.99;18.70;98872.00;5112238;28;20408;-75
2021/07/20 11:10:09;;;;;;;7.57;4.35;;;;;;;34.59;18.80;98857.75;5112456;28;20078;-76
2021/07/20 11:12:38;;;;;;;9.73;4.65;;;;;;;34.52;19.10;98862.81;5094074;28;20071;-75
2021/07/20 11:15:04;;;;;;;13.32;4.93;;;;;;;34.50;19.17;98859.53;5112559;28;20177;-75
2021/07/20 11:17:32;;;;;;;12.45;5.20;;;;;;;34.50;19.31;98859.53;5112475;28;20192;-76
2021/07/20 11:20:01;;;;;;;9.07;4.93;;;;;;;33.90;19.63;98860.88;5094691;28;20046;-75
2021/07/20 11:22:29;;;;;;;9.73;5.05;;;;;;;33.50;20.10;98865.72;5077500;28;20473;-77
2021/07/20 11:24:55;;;;;;;8.00;4.25;;;;;;;33.20;20.07;98862.94;5094108;28;20039;-75
2021/07/20 11:27:22;;;;;;;12.32;6.40;;;;;;;33.31;20.83;98858.22;5094409;28;20039;-75
2021/07/20 11:29:49;;;;;;;11.68;5.07;;;;;;;33.70;20.47;98854.50;5096603;28;20422;-77
2021/07/20 11:32:22;;;;;;;9.68;5.03;;;;;;;33.89;20.57;98858.44;5098372;28;20043;-79
2021/07/20 11:34:59;;;;;;;10.65;4.97;;;;;;;33.54;20.78;98866.75;5098057;28;20104;-75
2021/07/20 11:37:31;;;;;;;15.57;4.95;;;;;;;33.41;20.56;98865.53;5097818;28;20043;-80
2021/07/20 11:40:04;;;;;;;11.10;4.10;;;;;;;33.57;20.37;98862.59;5082984;28;20052;-75
2021/07/20 11:43:02;;;;;;;8.10;3.78;;;;;;;33.43;20.55;98865.22;5100359;28;20047;-75
2021/07/20 11:45:40;;;;;;;8.05;4.07;;;;;;;33.50;20.53;98862.97;5098490;28;20408;-76